sensor_id;sensor_type;location;lat;lon;timestamp;P1;durP1;ratioP1;P2;durP2;ratioP2
7231;SDS011;3657;49.630;11.018;2023-08-08T00:01:13;18.00;;;17.60;;
7231;SDS011;3657;49.630;11.018;2023-08-08T00:03:40;19.37;;;18.90;;
7231;SDS011;3657;49.630;11.018;2023-08-08T00:06:06;18.40;;;18.00;;
7231;SDS011;3657;49.630;11.018;2023-08-08T00:08:33;18.80;;;18.50;;
7231;SDS011;3657;49.630;11.018;2023-08-08T00:11:00;18.17;;;17.83;;
7231;SDS011;3657;49.630;11.018;2023-08-08T00:13:28;18.70;;;18.40;;
7231;SDS011;3657;49.630;11.018;2023-08-08T00:15:54;18.53;;;18.13;;
7231;SDS011;3657;49.630;11.018;2023-08-08T00:18:21;17.40;;;17.10;;
7231;SDS011;3657;49.630;11.018;2023-08-08T00:20:48;20.03;;;19.60;;
7231;SDS011;3657;49.630;11.018;2023-08-08T00:23:15;19.10;;;18.70;;
7231;SDS011;3657;49.630;11.018;2023-08-08T00:25:41;20.40;;;20.00;;
7231;SDS011;3657;49.630;11.018;2023-08-08T00:28:08;18.47;;;18.10;;
7231;SDS011;3657;49.630;11.018;2023-08-08T00:30:36;19.57;;;19.17;;
7231;SDS011;3657;49.630;11.018;2023-08-08T00:33:03;19.30;;;18.90;;
7231;SDS011;3657;49.630;11.018;2023-08-08T00:35:30;21.43;;;20.77;;
7231;SDS011;3657;49.630;11.018;2023-08-08T00:37:56;20.17;;;19.77;;
7231;SDS011;3657;49.630;11.018;2023-08-08T00:40:23;18.40;;;17.90;;
7231;SDS011;3657;49.630;11.018;2023-08-08T00:42:50;20.37;;;19.97;;
7231;SDS011;3657;49.630;11.018;2023-08-08T00:45:17;19.17;;;18.57;;
7231;SDS011;3657;49.630;11.018;2023-08-08T00:47:45;19.90;;;19.40;;
7231;SDS011;3657;49.630;11.018;2023-08-08T00:50:11;21.53;;;21.00;;
7231;SDS011;3657;49.630;11.018;2023-08-08T00:52:39;21.53;;;21.13;;
7231;SDS011;3657;49.630;11.018;2023-08-08T00:55:07;21.07;;;20.57;;
7231;SDS011;3657;49.630;11.018;2023-08-08T00:57:34;19.87;;;19.47;;
7231;SDS011;3657;49.630;11.018;2023-08-08T01:00:03;20.73;;;20.23;;
7231;SDS011;3657;49.630;11.018;2023-08-08T01:02:31;22.30;;;21.40;;
7231;SDS011;3657;49.630;11.018;2023-08-08T01:04:59;19.40;;;19.00;;
7231;SDS011;3657;49.630;11.018;2023-08-08T01:07:29;20.70;;;20.30;;
7231;SDS011;3657;49.630;11.018;2023-08-08T01:10:03;22.57;;;22.17;;
7231;SDS011;3657;49.630;11.018;2023-08-08T01:12:33;20.43;;;19.93;;
7231;SDS011;3657;49.630;11.018;2023-08-08T01:15:05;21.47;;;21.07;;
7231;SDS011;3657;49.630;11.018;2023-08-08T01:17:33;20.53;;;20.03;;
7231;SDS011;3657;49.630;11.018;2023-08-08T01:20:03;22.90;;;22.17;;
7231;SDS011;3657;49.630;11.018;2023-08-08T01:22:32;20.83;;;20.33;;
7231;SDS011;3657;49.630;11.018;2023-08-08T01:25:05;19.23;;;18.87;;
7231;SDS011;3657;49.630;11.018;2023-08-08T01:27:33;20.70;;;20.20;;
7231;SDS011;3657;49.630;11.018;2023-08-08T01:30:01;20.27;;;19.87;;
7231;SDS011;3657;49.630;11.018;2023-08-08T01:32:28;21.90;;;21.40;;
7231;SDS011;3657;49.630;11.018;2023-08-08T01:34:55;21.50;;;21.00;;
7231;SDS011;3657;49.630;11.018;2023-08-08T01:37:22;21.13;;;20.67;;
7231;SDS011;3657;49.630;11.018;2023-08-08T01:39:55;20.67;;;20.27;;
7231;SDS011;3657;49.630;11.018;2023-08-08T01:42:25;20.97;;;20.57;;
7231;SDS011;3657;49.630;11.018;2023-08-08T01:44:53;20.90;;;20.40;;
7231;SDS011;3657;49.630;11.018;2023-08-08T01:47:20;23.50;;;22.73;;
7231;SDS011;3657;49.630;11.018;2023-08-08T01:49:47;19.80;;;19.50;;
7231;SDS011;3657;49.630;11.018;2023-08-08T01:52:14;21.60;;;21.00;;
7231;SDS011;3657;49.630;11.018;2023-08-08T01:54:40;19.97;;;19.57;;
7231;SDS011;3657;49.630;11.018;2023-08-08T01:57:07;19.87;;;19.47;;
7231;SDS011;3657;49.630;11.018;2023-08-08T01:59:35;18.70;;;18.40;;
7231;SDS011;3657;49.630;11.018;2023-08-08T02:02:02;21.77;;;21.20;;
7231;SDS011;3657;49.630;11.018;2023-08-08T02:04:29;20.53;;;20.13;;
7231;SDS011;3657;49.630;11.018;2023-08-08T02:06:56;19.30;;;19.00;;
7231;SDS011;3657;49.630;11.018;2023-08-08T02:09:23;18.97;;;18.67;;
7231;SDS011;3657;49.630;11.018;2023-08-08T02:11:49;19.27;;;18.97;;
7231;SDS011;3657;49.630;11.018;2023-08-08T02:14:16;19.93;;;19.63;;
7231;SDS011;3657;49.630;11.018;2023-08-08T02:16:44;18.80;;;18.43;;
7231;SDS011;3657;49.630;11.018;2023-08-08T02:19:10;19.97;;;19.50;;
7231;SDS011;3657;49.630;11.018;2023-08-08T02:21:37;21.03;;;20.53;;
7231;SDS011;3657;49.630;11.018;2023-08-08T02:24:04;22.20;;;21.60;;
7231;SDS011;3657;49.630;11.018;2023-08-08T02:26:31;21.13;;;20.63;;
7231;SDS011;3657;49.630;11.018;2023-08-08T02:28:57;20.47;;;20.07;;
7231;SDS011;3657;49.630;11.018;2023-08-08T02:31:24;20.20;;;19.90;;
7231;SDS011;3657;49.630;11.018;2023-08-08T02:33:52;21.37;;;20.97;;
7231;SDS011;3657;49.630;11.018;2023-08-08T02:36:19;19.97;;;19.67;;
7231;SDS011;3657;49.630;11.018;2023-08-08T02:38:46;19.93;;;19.53;;
7231;SDS011;3657;49.630;11.018;2023-08-08T02:41:14;21.90;;;21.17;;
7231;SDS011;3657;49.630;11.018;2023-08-08T02:43:41;22.17;;;21.57;;
7231;SDS011;3657;49.630;11.018;2023-08-08T02:46:08;20.97;;;20.57;;
7231;SDS011;3657;49.630;11.018;2023-08-08T02:48:34;21.00;;;20.40;;
7231;SDS011;3657;49.630;11.018;2023-08-08T02:51:02;20.20;;;19.70;;
7231;SDS011;3657;49.630;11.018;2023-08-08T02:53:29;21.47;;;21.03;;
7231;SDS011;3657;49.630;11.018;2023-08-08T02:55:56;20.03;;;19.63;;
7231;SDS011;3657;49.630;11.018;2023-08-08T02:58:22;19.30;;;18.90;;
7231;SDS011;3657;49.630;11.018;2023-08-08T03:00:49;19.50;;;19.10;;
7231;SDS011;3657;49.630;11.018;2023-08-08T03:03:16;19.97;;;19.57;;
7231;SDS011;3657;49.630;11.018;2023-08-08T03:05:43;19.57;;;19.07;;
7231;SDS011;3657;49.630;11.018;2023-08-08T03:08:11;20.03;;;19.63;;
7231;SDS011;3657;49.630;11.018;2023-08-08T03:10:38;19.10;;;18.60;;
7231;SDS011;3657;49.630;11.018;2023-08-08T03:13:06;19.30;;;18.80;;
7231;SDS011;3657;49.630;11.018;2023-08-08T03:15:32;19.50;;;19.10;;
7231;SDS011;3657;49.630;11.018;2023-08-08T03:18:00;19.10;;;18.60;;
7231;SDS011;3657;49.630;11.018;2023-08-08T03:20:27;19.83;;;19.40;;
7231;SDS011;3657;49.630;11.018;2023-08-08T03:22:53;20.20;;;19.80;;
7231;SDS011;3657;49.630;11.018;2023-08-08T03:25:21;19.10;;;18.70;;
7231;SDS011;3657;49.630;11.018;2023-08-08T03:27:48;17.83;;;17.43;;
7231;SDS011;3657;49.630;11.018;2023-08-08T03:30:15;18.77;;;18.30;;
7231;SDS011;3657;49.630;11.018;2023-08-08T03:32:41;19.70;;;19.03;;
7231;SDS011;3657;49.630;11.018;2023-08-08T03:35:08;18.67;;;18.27;;
7231;SDS011;3657;49.630;11.018;2023-08-08T03:37:35;18.57;;;18.17;;
7231;SDS011;3657;49.630;11.018;2023-08-08T03:40:02;20.07;;;19.67;;
7231;SDS011;3657;49.630;11.018;2023-08-08T03:42:30;18.87;;;18.47;;
7231;SDS011;3657;49.630;11.018;2023-08-08T03:44:57;19.20;;;18.53;;
7231;SDS011;3657;49.630;11.018;2023-08-08T03:47:24;17.83;;;17.53;;
7231;SDS011;3657;49.630;11.018;2023-08-08T03:49:51;19.47;;;19.07;;
7231;SDS011;3657;49.630;11.018;2023-08-08T03:52:20;18.70;;;18.40;;
7231;SDS011;3657;49.630;11.018;2023-08-08T03:54:46;18.37;;;17.97;;
7231;SDS011;3657;49.630;11.018;2023-08-08T03:57:13;17.63;;;17.23;;
7231;SDS011;3657;49.630;11.018;2023-08-08T03:59:41;17.43;;;17.03;;
7231;SDS011;3657;49.630;11.018;2023-08-08T04:02:08;19.23;;;18.87;;
7231;SDS011;3657;49.630;11.018;2023-08-08T04:04:35;18.07;;;17.67;;
7231;SDS011;3657;49.630;11.018;2023-08-08T04:07:01;18.03;;;17.63;;
7231;SDS011;3657;49.630;11.018;2023-08-08T04:09:28;19.63;;;19.23;;
7231;SDS011;3657;49.630;11.018;2023-08-08T04:11:55;20.00;;;19.50;;
7231;SDS011;3657;49.630;11.018;2023-08-08T04:14:21;19.87;;;19.47;;
7231;SDS011;3657;49.630;11.018;2023-08-08T04:16:49;19.67;;;19.27;;
7231;SDS011;3657;49.630;11.018;2023-08-08T04:19:16;18.40;;;18.10;;
7231;SDS011;3657;49.630;11.018;2023-08-08T04:21:43;18.70;;;18.20;;
7231;SDS011;3657;49.630;11.018;2023-08-08T04:24:10;17.93;;;17.63;;
7231;SDS011;3657;49.630;11.018;2023-08-08T04:26:37;17.60;;;17.20;;
7231;SDS011;3657;49.630;11.018;2023-08-08T04:29:05;17.87;;;17.57;;
7231;SDS011;3657;49.630;11.018;2023-08-08T04:31:31;18.10;;;17.70;;
7231;SDS011;3657;49.630;11.018;2023-08-08T04:33:59;20.10;;;19.37;;
7231;SDS011;3657;49.630;11.018;2023-08-08T04:36:27;18.97;;;18.57;;
7231;SDS011;3657;49.630;11.018;2023-08-08T04:38:54;18.07;;;17.67;;
7231;SDS011;3657;49.630;11.018;2023-08-08T04:41:21;18.20;;;17.80;;
7231;SDS011;3657;49.630;11.018;2023-08-08T04:43:47;18.97;;;18.57;;
7231;SDS011;3657;49.630;11.018;2023-08-08T04:46:14;18.97;;;18.30;;
7231;SDS011;3657;49.630;11.018;2023-08-08T04:48:41;19.27;;;18.77;;
7231;SDS011;3657;49.630;11.018;2023-08-08T04:51:09;17.63;;;17.33;;
7231;SDS011;3657;49.630;11.018;2023-08-08T04:53:36;18.10;;;17.77;;
7231;SDS011;3657;49.630;11.018;2023-08-08T04:56:02;19.80;;;19.40;;
7231;SDS011;3657;49.630;11.018;2023-08-08T04:58:29;17.23;;;16.93;;
7231;SDS011;3657;49.630;11.018;2023-08-08T05:00:56;19.20;;;18.80;;
7231;SDS011;3657;49.630;11.018;2023-08-08T05:03:23;17.73;;;17.43;;
7231;SDS011;3657;49.630;11.018;2023-08-08T05:05:50;18.03;;;17.73;;
7231;SDS011;3657;49.630;11.018;2023-08-08T05:08:18;18.73;;;18.20;;
7231;SDS011;3657;49.630;11.018;2023-08-08T05:10:46;18.43;;;17.83;;
7231;SDS011;3657;49.630;11.018;2023-08-08T05:13:12;20.33;;;19.80;;
7231;SDS011;3657;49.630;11.018;2023-08-08T05:15:39;20.43;;;19.93;;
7231;SDS011;3657;49.630;11.018;2023-08-08T05:18:06;18.20;;;17.90;;
7231;SDS011;3657;49.630;11.018;2023-08-08T05:20:32;19.87;;;18.50;;
7231;SDS011;3657;49.630;11.018;2023-08-08T05:22:59;19.63;;;19.23;;
7231;SDS011;3657;49.630;11.018;2023-08-08T05:25:27;17.93;;;17.63;;
7231;SDS011;3657;49.630;11.018;2023-08-08T05:27:54;18.07;;;17.70;;
7231;SDS011;3657;49.630;11.018;2023-08-08T05:30:21;17.80;;;17.50;;
7231;SDS011;3657;49.630;11.018;2023-08-08T05:32:48;20.00;;;19.40;;
7231;SDS011;3657;49.630;11.018;2023-08-08T05:35:14;19.20;;;18.70;;
7231;SDS011;3657;49.630;11.018;2023-08-08T05:37:41;18.27;;;17.87;;
7231;SDS011;3657;49.630;11.018;2023-08-08T05:40:08;19.43;;;19.03;;
7231;SDS011;3657;49.630;11.018;2023-08-08T05:42:37;18.53;;;18.03;;
7231;SDS011;3657;49.630;11.018;2023-08-08T05:45:04;19.37;;;18.97;;
7231;SDS011;3657;49.630;11.018;2023-08-08T05:47:31;18.97;;;18.47;;
7231;SDS011;3657;49.630;11.018;2023-08-08T05:49:58;16.80;;;16.50;;
7231;SDS011;3657;49.630;11.018;2023-08-08T05:52:25;18.37;;;18.07;;
7231;SDS011;3657;49.630;11.018;2023-08-08T05:54:52;19.67;;;19.20;;
7231;SDS011;3657;49.630;11.018;2023-08-08T05:57:19;19.37;;;18.97;;
7231;SDS011;3657;49.630;11.018;2023-08-08T05:59:47;20.93;;;20.33;;
7231;SDS011;3657;49.630;11.018;2023-08-08T06:02:15;22.37;;;21.87;;
7231;SDS011;3657;49.630;11.018;2023-08-08T06:04:42;20.20;;;19.80;;
7231;SDS011;3657;49.630;11.018;2023-08-08T06:07:08;23.37;;;22.87;;
7231;SDS011;3657;49.630;11.018;2023-08-08T06:09:35;22.50;;;21.60;;
7231;SDS011;3657;49.630;11.018;2023-08-08T06:12:03;21.50;;;21.10;;
7231;SDS011;3657;49.630;11.018;2023-08-08T06:14:30;19.33;;;18.93;;
7231;SDS011;3657;49.630;11.018;2023-08-08T06:16:58;17.93;;;17.50;;
7231;SDS011;3657;49.630;11.018;2023-08-08T06:19:25;20.70;;;20.27;;
7231;SDS011;3657;49.630;11.018;2023-08-08T06:21:51;17.67;;;17.23;;
7231;SDS011;3657;49.630;11.018;2023-08-08T06:24:18;17.90;;;17.50;;
7231;SDS011;3657;49.630;11.018;2023-08-08T06:26:45;17.83;;;17.53;;
7231;SDS011;3657;49.630;11.018;2023-08-08T06:29:11;19.23;;;18.63;;
7231;SDS011;3657;49.630;11.018;2023-08-08T06:31:39;19.07;;;18.67;;
7231;SDS011;3657;49.630;11.018;2023-08-08T06:34:07;19.33;;;19.03;;
7231;SDS011;3657;49.630;11.018;2023-08-08T06:36:34;19.63;;;19.23;;
7231;SDS011;3657;49.630;11.018;2023-08-08T06:39:00;20.80;;;20.17;;
7231;SDS011;3657;49.630;11.018;2023-08-08T06:41:28;18.23;;;17.83;;
7231;SDS011;3657;49.630;11.018;2023-08-08T06:43:54;20.37;;;19.87;;
7231;SDS011;3657;49.630;11.018;2023-08-08T06:46:21;19.97;;;19.47;;
7231;SDS011;3657;49.630;11.018;2023-08-08T06:48:49;18.43;;;18.13;;
7231;SDS011;3657;49.630;11.018;2023-08-08T06:51:19;19.47;;;19.07;;
7231;SDS011;3657;49.630;11.018;2023-08-08T06:53:46;18.80;;;18.50;;
7231;SDS011;3657;49.630;11.018;2023-08-08T06:56:13;18.80;;;18.23;;
7231;SDS011;3657;49.630;11.018;2023-08-08T06:58:39;19.23;;;18.83;;
7231;SDS011;3657;49.630;11.018;2023-08-08T07:01:06;19.63;;;19.13;;
7231;SDS011;3657;49.630;11.018;2023-08-08T07:03:33;19.60;;;19.20;;
7231;SDS011;3657;49.630;11.018;2023-08-08T07:05:59;19.07;;;18.77;;
7231;SDS011;3657;49.630;11.018;2023-08-08T07:08:28;20.33;;;19.93;;
7231;SDS011;3657;49.630;11.018;2023-08-08T07:10:56;19.60;;;19.17;;
7231;SDS011;3657;49.630;11.018;2023-08-08T07:13:23;17.93;;;17.57;;
7231;SDS011;3657;49.630;11.018;2023-08-08T07:15:50;17.40;;;17.03;;
7231;SDS011;3657;49.630;11.018;2023-08-08T07:18:16;18.77;;;18.33;;
7231;SDS011;3657;49.630;11.018;2023-08-08T07:20:43;17.50;;;17.10;;
7231;SDS011;3657;49.630;11.018;2023-08-08T07:23:10;16.30;;;16.00;;
7231;SDS011;3657;49.630;11.018;2023-08-08T07:25:38;17.03;;;16.73;;
7231;SDS011;3657;49.630;11.018;2023-08-08T07:28:04;16.93;;;16.43;;
7231;SDS011;3657;49.630;11.018;2023-08-08T07:30:31;16.40;;;16.10;;
7231;SDS011;3657;49.630;11.018;2023-08-08T07:32:58;17.40;;;17.10;;
7231;SDS011;3657;49.630;11.018;2023-08-08T07:35:24;16.10;;;15.80;;
7231;SDS011;3657;49.630;11.018;2023-08-08T07:37:52;16.07;;;15.77;;
7231;SDS011;3657;49.630;11.018;2023-08-08T07:40:19;15.53;;;15.23;;
7231;SDS011;3657;49.630;11.018;2023-08-08T07:42:48;18.20;;;17.83;;
7231;SDS011;3657;49.630;11.018;2023-08-08T07:45:15;16.00;;;15.63;;
7231;SDS011;3657;49.630;11.018;2023-08-08T07:47:42;16.60;;;16.20;;
7231;SDS011;3657;49.630;11.018;2023-08-08T07:50:09;15.07;;;14.77;;
7231;SDS011;3657;49.630;11.018;2023-08-08T07:52:38;15.90;;;15.40;;
7231;SDS011;3657;49.630;11.018;2023-08-08T07:55:05;15.53;;;15.23;;
7231;SDS011;3657;49.630;11.018;2023-08-08T07:57:32;15.70;;;15.40;;
7231;SDS011;3657;49.630;11.018;2023-08-08T08:00:01;16.37;;;15.97;;
7231;SDS011;3657;49.630;11.018;2023-08-08T08:02:34;16.00;;;15.70;;
7231;SDS011;3657;49.630;11.018;2023-08-08T08:05:01;16.37;;;16.07;;
7231;SDS011;3657;49.630;11.018;2023-08-08T08:07:30;15.73;;;15.43;;
7231;SDS011;3657;49.630;11.018;2023-08-08T08:09:57;15.33;;;15.13;;
7231;SDS011;3657;49.630;11.018;2023-08-08T08:12:23;16.37;;;16.07;;
7231;SDS011;3657;49.630;11.018;2023-08-08T08:14:50;16.73;;;16.43;;
7231;SDS011;3657;49.630;11.018;2023-08-08T08:17:18;16.37;;;15.87;;
7231;SDS011;3657;49.630;11.018;2023-08-08T08:19:45;15.13;;;14.87;;
7231;SDS011;3657;49.630;11.018;2023-08-08T08:22:12;16.97;;;16.67;;
7231;SDS011;3657;49.630;11.018;2023-08-08T08:24:39;16.40;;;16.10;;
7231;SDS011;3657;49.630;11.018;2023-08-08T08:27:05;16.27;;;15.97;;
7231;SDS011;3657;49.630;11.018;2023-08-08T08:29:32;16.13;;;15.83;;
7231;SDS011;3657;49.630;11.018;2023-08-08T08:31:59;14.90;;;14.70;;
7231;SDS011;3657;49.630;11.018;2023-08-08T08:34:27;16.47;;;16.17;;
7231;SDS011;3657;49.630;11.018;2023-08-08T08:36:54;16.70;;;16.40;;
7231;SDS011;3657;49.630;11.018;2023-08-08T08:39:20;16.57;;;16.27;;
7231;SDS011;3657;49.630;11.018;2023-08-08T08:41:48;15.73;;;15.43;;
7231;SDS011;3657;49.630;11.018;2023-08-08T08:44:19;15.00;;;14.77;;
7231;SDS011;3657;49.630;11.018;2023-08-08T08:46:47;16.07;;;15.77;;
7231;SDS011;3657;49.630;11.018;2023-08-08T08:49:16;15.17;;;14.87;;
7231;SDS011;3657;49.630;11.018;2023-08-08T08:51:45;14.97;;;14.67;;
7231;SDS011;3657;49.630;11.018;2023-08-08T08:54:13;15.60;;;15.30;;
7231;SDS011;3657;49.630;11.018;2023-08-08T08:56:40;14.90;;;14.60;;
7231;SDS011;3657;49.630;11.018;2023-08-08T08:59:08;15.50;;;15.20;;
7231;SDS011;3657;49.630;11.018;2023-08-08T09:01:35;15.37;;;15.10;;
7231;SDS011;3657;49.630;11.018;2023-08-08T09:04:02;15.57;;;15.27;;
7231;SDS011;3657;49.630;11.018;2023-08-08T09:06:32;15.23;;;14.93;;
7231;SDS011;3657;49.630;11.018;2023-08-08T09:09:00;15.43;;;15.23;;
7231;SDS011;3657;49.630;11.018;2023-08-08T09:11:28;14.83;;;14.53;;
7231;SDS011;3657;49.630;11.018;2023-08-08T09:13:54;14.70;;;14.50;;
7231;SDS011;3657;49.630;11.018;2023-08-08T09:16:21;15.17;;;14.77;;
7231;SDS011;3657;49.630;11.018;2023-08-08T09:18:48;16.03;;;15.73;;
7231;SDS011;3657;49.630;11.018;2023-08-08T09:21:16;14.37;;;14.07;;
7231;SDS011;3657;49.630;11.018;2023-08-08T09:23:44;14.80;;;14.60;;
7231;SDS011;3657;49.630;11.018;2023-08-08T09:26:13;15.77;;;15.47;;
7231;SDS011;3657;49.630;11.018;2023-08-08T09:28:41;16.37;;;15.93;;
7231;SDS011;3657;49.630;11.018;2023-08-08T09:31:08;15.47;;;15.23;;
7231;SDS011;3657;49.630;11.018;2023-08-08T09:33:35;15.67;;;15.37;;
7231;SDS011;3657;49.630;11.018;2023-08-08T09:36:05;15.07;;;14.70;;
7231;SDS011;3657;49.630;11.018;2023-08-08T09:38:32;15.90;;;15.50;;
7231;SDS011;3657;49.630;11.018;2023-08-08T09:40:59;15.30;;;15.00;;
7231;SDS011;3657;49.630;11.018;2023-08-08T09:43:27;15.93;;;15.63;;
7231;SDS011;3657;49.630;11.018;2023-08-08T09:45:54;15.00;;;14.80;;
7231;SDS011;3657;49.630;11.018;2023-08-08T09:48:21;15.13;;;14.90;;
7231;SDS011;3657;49.630;11.018;2023-08-08T09:50:48;15.70;;;15.40;;
7231;SDS011;3657;49.630;11.018;2023-08-08T09:53:16;15.57;;;15.10;;
7231;SDS011;3657;49.630;11.018;2023-08-08T09:55:44;15.90;;;15.60;;
7231;SDS011;3657;49.630;11.018;2023-08-08T09:58:11;14.80;;;14.60;;
7231;SDS011;3657;49.630;11.018;2023-08-08T10:00:41;15.53;;;14.57;;
7231;SDS011;3657;49.630;11.018;2023-08-08T10:03:08;15.80;;;15.50;;
7231;SDS011;3657;49.630;11.018;2023-08-08T10:05:35;15.20;;;14.90;;
7231;SDS011;3657;49.630;11.018;2023-08-08T10:08:03;14.07;;;13.87;;
7231;SDS011;3657;49.630;11.018;2023-08-08T10:10:31;15.60;;;15.30;;
7231;SDS011;3657;49.630;11.018;2023-08-08T10:12:58;15.77;;;15.47;;
7231;SDS011;3657;49.630;11.018;2023-08-08T10:15:25;14.63;;;14.43;;
7231;SDS011;3657;49.630;11.018;2023-08-08T10:17:54;14.43;;;14.13;;
7231;SDS011;3657;49.630;11.018;2023-08-08T10:20:22;15.70;;;15.40;;
7231;SDS011;3657;49.630;11.018;2023-08-08T10:22:51;14.00;;;13.80;;
7231;SDS011;3657;49.630;11.018;2023-08-08T10:25:22;15.73;;;15.43;;
7231;SDS011;3657;49.630;11.018;2023-08-08T10:28:00;14.90;;;14.60;;
7231;SDS011;3657;49.630;11.018;2023-08-08T10:30:29;15.40;;;15.10;;
7231;SDS011;3657;49.630;11.018;2023-08-08T10:32:58;16.07;;;15.67;;
7231;SDS011;3657;49.630;11.018;2023-08-08T10:35:34;15.20;;;14.90;;
7231;SDS011;3657;49.630;11.018;2023-08-08T10:38:07;14.57;;;14.27;;
7231;SDS011;3657;49.630;11.018;2023-08-08T10:40:35;15.20;;;14.90;;
7231;SDS011;3657;49.630;11.018;2023-08-08T10:43:09;14.53;;;14.33;;
7231;SDS011;3657;49.630;11.018;2023-08-08T10:45:40;14.90;;;14.60;;
7231;SDS011;3657;49.630;11.018;2023-08-08T10:48:09;15.80;;;15.50;;
7231;SDS011;3657;49.630;11.018;2023-08-08T10:50:38;15.20;;;14.80;;
7231;SDS011;3657;49.630;11.018;2023-08-08T10:53:08;15.63;;;15.23;;
7231;SDS011;3657;49.630;11.018;2023-08-08T10:55:36;14.20;;;13.90;;
7231;SDS011;3657;49.630;11.018;2023-08-08T10:58:04;14.77;;;14.47;;
7231;SDS011;3657;49.630;11.018;2023-08-08T11:00:33;15.80;;;15.50;;
7231;SDS011;3657;49.630;11.018;2023-08-08T11:03:01;15.33;;;15.03;;
7231;SDS011;3657;49.630;11.018;2023-08-08T11:05:31;15.30;;;15.00;;
7231;SDS011;3657;49.630;11.018;2023-08-08T11:07:58;15.17;;;14.93;;
7231;SDS011;3657;49.630;11.018;2023-08-08T11:10:26;14.70;;;14.50;;
7231;SDS011;3657;49.630;11.018;2023-08-08T11:12:56;15.57;;;15.17;;
7231;SDS011;3657;49.630;11.018;2023-08-08T11:15:25;15.33;;;14.93;;
7231;SDS011;3657;49.630;11.018;2023-08-08T11:17:52;15.77;;;15.40;;
7231;SDS011;3657;49.630;11.018;2023-08-08T11:20:20;15.33;;;14.93;;
7231;SDS011;3657;49.630;11.018;2023-08-08T11:22:51;16.37;;;16.07;;
7231;SDS011;3657;49.630;11.018;2023-08-08T11:25:19;15.43;;;15.17;;
7231;SDS011;3657;49.630;11.018;2023-08-08T11:27:49;16.90;;;16.47;;
7231;SDS011;3657;49.630;11.018;2023-08-08T11:30:17;15.57;;;15.27;;
7231;SDS011;3657;49.630;11.018;2023-08-08T11:32:44;15.23;;;14.93;;
7231;SDS011;3657;49.630;11.018;2023-08-08T11:35:12;15.60;;;15.30;;
7231;SDS011;3657;49.630;11.018;2023-08-08T11:37:41;14.80;;;14.30;;
7231;SDS011;3657;49.630;11.018;2023-08-08T11:40:11;14.37;;;14.03;;
7231;SDS011;3657;49.630;11.018;2023-08-08T11:42:38;14.60;;;14.30;;
7231;SDS011;3657;49.630;11.018;2023-08-08T11:45:06;15.07;;;14.77;;
7231;SDS011;3657;49.630;11.018;2023-08-08T11:47:35;15.77;;;15.37;;
7231;SDS011;3657;49.630;11.018;2023-08-08T11:50:01;15.70;;;15.30;;
7231;SDS011;3657;49.630;11.018;2023-08-08T11:52:29;15.13;;;14.83;;
7231;SDS011;3657;49.630;11.018;2023-08-08T11:54:56;14.37;;;14.17;;
7231;SDS011;3657;49.630;11.018;2023-08-08T11:57:26;14.37;;;14.13;;
7231;SDS011;3657;49.630;11.018;2023-08-08T11:59:53;13.43;;;13.23;;
7231;SDS011;3657;49.630;11.018;2023-08-08T12:02:19;14.93;;;14.73;;
7231;SDS011;3657;49.630;11.018;2023-08-08T12:04:46;15.37;;;15.07;;
7231;SDS011;3657;49.630;11.018;2023-08-08T12:07:13;15.23;;;14.93;;
7231;SDS011;3657;49.630;11.018;2023-08-08T12:09:40;15.00;;;14.70;;
7231;SDS011;3657;49.630;11.018;2023-08-08T12:12:08;15.37;;;15.07;;
7231;SDS011;3657;49.630;11.018;2023-08-08T12:14:37;15.27;;;14.97;;
7231;SDS011;3657;49.630;11.018;2023-08-08T12:17:05;15.67;;;15.10;;
7231;SDS011;3657;49.630;11.018;2023-08-08T12:19:31;15.20;;;14.90;;
7231;SDS011;3657;49.630;11.018;2023-08-08T12:21:58;15.13;;;14.73;;
7231;SDS011;3657;49.630;11.018;2023-08-08T12:24:25;14.73;;;14.40;;
7231;SDS011;3657;49.630;11.018;2023-08-08T12:26:52;15.97;;;15.67;;
7231;SDS011;3657;49.630;11.018;2023-08-08T12:29:19;15.23;;;14.93;;
7231;SDS011;3657;49.630;11.018;2023-08-08T12:31:46;14.47;;;14.17;;
7231;SDS011;3657;49.630;11.018;2023-08-08T12:34:13;15.60;;;15.30;;
7231;SDS011;3657;49.630;11.018;2023-08-08T12:36:40;15.10;;;14.80;;
7231;SDS011;3657;49.630;11.018;2023-08-08T12:39:07;14.33;;;14.03;;
7231;SDS011;3657;49.630;11.018;2023-08-08T12:41:35;14.67;;;14.37;;
7231;SDS011;3657;49.630;11.018;2023-08-08T12:44:02;15.00;;;14.70;;
7231;SDS011;3657;49.630;11.018;2023-08-08T12:46:29;15.13;;;14.83;;
7231;SDS011;3657;49.630;11.018;2023-08-08T12:48:57;14.37;;;14.10;;
7231;SDS011;3657;49.630;11.018;2023-08-08T12:51:23;13.97;;;13.77;;
7231;SDS011;3657;49.630;11.018;2023-08-08T12:53:50;14.50;;;14.20;;
7231;SDS011;3657;49.630;11.018;2023-08-08T12:56:17;14.80;;;14.50;;
7231;SDS011;3657;49.630;11.018;2023-08-08T12:58:43;14.43;;;14.13;;
7231;SDS011;3657;49.630;11.018;2023-08-08T13:01:10;14.10;;;13.80;;
7231;SDS011;3657;49.630;11.018;2023-08-08T13:03:37;14.60;;;14.40;;
7231;SDS011;3657;49.630;11.018;2023-08-08T13:06:06;13.60;;;13.40;;
7231;SDS011;3657;49.630;11.018;2023-08-08T13:08:33;15.07;;;14.77;;
7231;SDS011;3657;49.630;11.018;2023-08-08T13:11:00;14.43;;;14.13;;
7231;SDS011;3657;49.630;11.018;2023-08-08T13:13:27;15.63;;;15.23;;
7231;SDS011;3657;49.630;11.018;2023-08-08T13:15:54;13.73;;;13.50;;
7231;SDS011;3657;49.630;11.018;2023-08-08T13:18:21;14.87;;;14.57;;
7231;SDS011;3657;49.630;11.018;2023-08-08T13:20:48;15.53;;;15.07;;
7231;SDS011;3657;49.630;11.018;2023-08-08T13:23:16;14.13;;;13.93;;
7231;SDS011;3657;49.630;11.018;2023-08-08T13:25:42;14.40;;;14.17;;
7231;SDS011;3657;49.630;11.018;2023-08-08T13:28:09;14.80;;;14.50;;
7231;SDS011;3657;49.630;11.018;2023-08-08T13:30:36;14.27;;;14.07;;
7231;SDS011;3657;49.630;11.018;2023-08-08T13:33:03;15.90;;;15.50;;
7231;SDS011;3657;49.630;11.018;2023-08-08T13:35:30;14.87;;;14.47;;
7231;SDS011;3657;49.630;11.018;2023-08-08T13:37:56;14.33;;;13.93;;
7231;SDS011;3657;49.630;11.018;2023-08-08T13:40:24;15.10;;;14.80;;
7231;SDS011;3657;49.630;11.018;2023-08-08T13:42:51;15.47;;;15.17;;
7231;SDS011;3657;49.630;11.018;2023-08-08T13:45:18;15.00;;;14.70;;
7231;SDS011;3657;49.630;11.018;2023-08-08T13:47:46;13.40;;;13.20;;
7231;SDS011;3657;49.630;11.018;2023-08-08T13:50:13;14.77;;;14.47;;
7231;SDS011;3657;49.630;11.018;2023-08-08T13:52:40;14.43;;;14.23;;
7231;SDS011;3657;49.630;11.018;2023-08-08T13:55:07;14.00;;;13.80;;
7231;SDS011;3657;49.630;11.018;2023-08-08T13:57:36;14.53;;;14.23;;
7231;SDS011;3657;49.630;11.018;2023-08-08T14:00:03;14.73;;;14.43;;
7231;SDS011;3657;49.630;11.018;2023-08-08T14:02:31;15.83;;;15.53;;
7231;SDS011;3657;49.630;11.018;2023-08-08T14:04:58;13.63;;;13.43;;
7231;SDS011;3657;49.630;11.018;2023-08-08T14:07:25;14.63;;;14.43;;
7231;SDS011;3657;49.630;11.018;2023-08-08T14:09:51;15.20;;;14.90;;
7231;SDS011;3657;49.630;11.018;2023-08-08T14:12:18;14.63;;;14.27;;
7231;SDS011;3657;49.630;11.018;2023-08-08T14:14:46;14.60;;;14.23;;
7231;SDS011;3657;49.630;11.018;2023-08-08T14:17:12;15.10;;;14.83;;
7231;SDS011;3657;49.630;11.018;2023-08-08T14:19:39;14.70;;;14.40;;
7231;SDS011;3657;49.630;11.018;2023-08-08T14:22:06;15.47;;;15.07;;
7231;SDS011;3657;49.630;11.018;2023-08-08T14:24:33;15.10;;;14.70;;
7231;SDS011;3657;49.630;11.018;2023-08-08T14:26:59;15.03;;;14.60;;
7231;SDS011;3657;49.630;11.018;2023-08-08T14:29:26;15.13;;;14.83;;
7231;SDS011;3657;49.630;11.018;2023-08-08T14:31:54;15.50;;;15.20;;
7231;SDS011;3657;49.630;11.018;2023-08-08T14:34:27;15.40;;;15.10;;